sensor_id;sensor_type;location;lat;lon;timestamp;pressure;altitude;pressure_sealevel;temperature;humidity
60437;BME280;46289;51.992;4.498;2024-01-30T00:01:27;102579.72;;;8.61;100.00
60437;BME280;46289;51.992;4.498;2024-01-30T00:03:32;102575.31;;;8.63;100.00
60437;BME280;46289;51.992;4.498;2024-01-30T00:05:40;102575.28;;;8.71;100.00
60437;BME280;46289;51.992;4.498;2024-01-30T00:07:45;102577.06;;;8.70;100.00
60437;BME280;46289;51.992;4.498;2024-01-30T00:09:50;102577.94;;;8.69;100.00
60437;BME280;46289;51.992;4.498;2024-01-30T00:11:53;102577.00;;;8.76;100.00
60437;BME280;46289;51.992;4.498;2024-01-30T00:13:58;102579.66;;;8.73;100.00
60437;BME280;46289;51.992;4.498;2024-01-30T00:16:03;102566.56;;;8.69;100.00
60437;BME280;46289;51.992;4.498;2024-01-30T00:18:09;102570.94;;;8.74;100.00
60437;BME280;46289;51.992;4.498;2024-01-30T00:20:14;102561.28;;;8.78;100.00
60437;BME280;46289;51.992;4.498;2024-01-30T00:22:21;102554.28;;;8.83;100.00
60437;BME280;46289;51.992;4.498;2024-01-30T00:24:24;102552.56;;;8.77;100.00
60437;BME280;46289;51.992;4.498;2024-01-30T00:26:29;102549.91;;;8.84;100.00
60437;BME280;46289;51.992;4.498;2024-01-30T00:28:31;102543.78;;;8.85;100.00
60437;BME280;46289;51.992;4.498;2024-01-30T00:30:36;102546.38;;;8.86;100.00
60437;BME280;46289;51.992;4.498;2024-01-30T00:32:41;102541.13;;;8.89;100.00
60437;BME280;46289;51.992;4.498;2024-01-30T00:34:46;102545.50;;;8.90;100.00
60437;BME280;46289;51.992;4.498;2024-01-30T00:36:52;102540.31;;;8.83;100.00
60437;BME280;46289;51.992;4.498;2024-01-30T00:39:00;102548.13;;;8.86;100.00
60437;BME280;46289;51.992;4.498;2024-01-30T00:41:08;102542.88;;;8.87;100.00
60437;BME280;46289;51.992;4.498;2024-01-30T00:43:13;102539.34;;;8.90;100.00
60437;BME280;46289;51.992;4.498;2024-01-30T00:45:18;102548.16;;;8.83;100.00
60437;BME280;46289;51.992;4.498;2024-01-30T00:47:21;102547.22;;;8.90;100.00
60437;BME280;46289;51.992;4.498;2024-01-30T00:49:28;102566.50;;;8.86;100.00
60437;BME280;46289;51.992;4.498;2024-01-30T00:51:31;102569.13;;;8.83;100.00
60437;BME280;46289;51.992;4.498;2024-01-30T00:53:36;102571.78;;;8.78;100.00
60437;BME280;46289;51.992;4.498;2024-01-30T00:55:46;102566.53;;;8.76;100.00
60437;BME280;46289;51.992;4.498;2024-01-30T00:57:52;102561.28;;;8.76;100.00
60437;BME280;46289;51.992;4.498;2024-01-30T00:59:58;102552.59;;;8.74;100.00
60437;BME280;46289;51.992;4.498;2024-01-30T01:02:03;102556.03;;;8.76;100.00
60437;BME280;46289;51.992;4.498;2024-01-30T01:04:09;102556.94;;;8.72;100.00
60437;BME280;46289;51.992;4.498;2024-01-30T01:06:14;102548.25;;;8.66;100.00
60437;BME280;46289;51.992;4.498;2024-01-30T01:08:19;102546.47;;;8.71;100.00
60437;BME280;46289;51.992;4.498;2024-01-30T01:10:24;102552.56;;;8.71;100.00
60437;BME280;46289;51.992;4.498;2024-01-30T01:12:32;102547.38;;;8.62;100.00
60437;BME280;46289;51.992;4.498;2024-01-30T01:14:42;102551.72;;;8.68;100.00
60437;BME280;46289;51.992;4.498;2024-01-30T01:16:47;102545.66;;;8.60;100.00
60437;BME280;46289;51.992;4.498;2024-01-30T01:18:52;102546.59;;;8.51;100.00
60437;BME280;46289;51.992;4.498;2024-01-30T01:20:55;102546.56;;;8.49;100.00
60437;BME280;46289;51.992;4.498;2024-01-30T01:23:03;102544.84;;;8.48;100.00
60437;BME280;46289;51.992;4.498;2024-01-30T01:25:08;102537.00;;;8.41;100.00
60437;BME280;46289;51.992;4.498;2024-01-30T01:27:13;102527.38;;;8.38;100.00
60437;BME280;46289;51.992;4.498;2024-01-30T01:29:24;102535.25;;;8.40;100.00
60437;BME280;46289;51.992;4.498;2024-01-30T01:31:30;102525.66;;;8.40;100.00
60437;BME280;46289;51.992;4.498;2024-01-30T01:33:36;102522.09;;;8.52;100.00
60437;BME280;46289;51.992;4.498;2024-01-30T01:35:43;102522.06;;;8.58;100.00
60437;BME280;46289;51.992;4.498;2024-01-30T01:37:48;102516.00;;;8.56;100.00
60437;BME280;46289;51.992;4.498;2024-01-30T01:39:57;102507.25;;;8.59;100.00
60437;BME280;46289;51.992;4.498;2024-01-30T01:42:02;102522.91;;;8.63;100.00
60437;BME280;46289;51.992;4.498;2024-01-30T01:44:07;102522.06;;;8.60;100.00
60437;BME280;46289;51.992;4.498;2024-01-30T01:46:17;102522.06;;;8.60;100.00
60437;BME280;46289;51.992;4.498;2024-01-30T01:48:22;102527.34;;;8.53;100.00
60437;BME280;46289;51.992;4.498;2024-01-30T01:50:30;102532.56;;;8.55;100.00
60437;BME280;46289;51.992;4.498;2024-01-30T01:52:36;102532.56;;;8.56;100.00
60437;BME280;46289;51.992;4.498;2024-01-30T01:54:42;102532.50;;;8.70;100.00
60437;BME280;46289;51.992;4.498;2024-01-30T01:56:47;102526.38;;;8.74;100.00
60437;BME280;46289;51.992;4.498;2024-01-30T01:58:54;102525.47;;;8.80;100.00
60437;BME280;46289;51.992;4.498;2024-01-30T02:01:00;102522.84;;;8.74;100.00
60437;BME280;46289;51.992;4.498;2024-01-30T02:03:10;102523.75;;;8.74;100.00
60437;BME280;46289;51.992;4.498;2024-01-30T02:05:16;102520.25;;;8.72;100.00
60437;BME280;46289;51.992;4.498;2024-01-30T02:07:23;102524.59;;;8.79;100.00
60437;BME280;46289;51.992;4.498;2024-01-30T02:09:30;102511.53;;;8.72;100.00
60437;BME280;46289;51.992;4.498;2024-01-30T02:11:37;102510.63;;;8.77;100.00
60437;BME280;46289;51.992;4.498;2024-01-30T02:13:42;102510.63;;;8.77;100.00
60437;BME280;46289;51.992;4.498;2024-01-30T02:15:49;102505.41;;;8.71;100.00
60437;BME280;46289;51.992;4.498;2024-01-30T02:17:56;102503.59;;;8.83;100.00
60437;BME280;46289;51.992;4.498;2024-01-30T02:20:05;102503.63;;;8.79;100.00
60437;BME280;46289;51.992;4.498;2024-01-30T02:22:11;102510.59;;;8.81;100.00
60437;BME280;46289;51.992;4.498;2024-01-30T02:24:16;102503.63;;;8.76;100.00
60437;BME280;46289;51.992;4.498;2024-01-30T02:26:24;102519.31;;;8.81;100.00
60437;BME280;46289;51.992;4.498;2024-01-30T02:28:28;102516.72;;;8.76;100.00
60437;BME280;46289;51.992;4.498;2024-01-30T02:30:33;102515.88;;;8.74;100.00
60437;BME280;46289;51.992;4.498;2024-01-30T02:32:40;102521.09;;;8.77;100.00
60437;BME280;46289;51.992;4.498;2024-01-30T02:34:45;102512.38;;;8.75;100.00
60437;BME280;46289;51.992;4.498;2024-01-30T02:36:51;102514.09;;;8.76;100.00
60437;BME280;46289;51.992;4.498;2024-01-30T02:39:02;102514.09;;;8.83;100.00
60437;BME280;46289;51.992;4.498;2024-01-30T02:41:07;102508.00;;;8.76;100.00
60437;BME280;46289;51.992;4.498;2024-01-30T02:43:11;102498.41;;;8.75;100.00
60437;BME280;46289;51.992;4.498;2024-01-30T02:45:16;102508.88;;;8.73;100.00
60437;BME280;46289;51.992;4.498;2024-01-30T02:47:22;102499.28;;;8.72;100.00
60437;BME280;46289;51.992;4.498;2024-01-30T02:49:28;102493.19;;;8.72;100.00
60437;BME280;46289;51.992;4.498;2024-01-30T02:51:33;102482.69;;;8.75;100.00
60437;BME280;46289;51.992;4.498;2024-01-30T02:53:35;102481.81;;;8.74;100.00
60437;BME280;46289;51.992;4.498;2024-01-30T02:55:44;102484.44;;;8.73;100.00
60437;BME280;46289;51.992;4.498;2024-01-30T02:57:49;102487.00;;;8.82;100.00
60437;BME280;46289;51.992;4.498;2024-01-30T02:59:54;102486.09;;;8.82;100.00
60437;BME280;46289;51.992;4.498;2024-01-30T03:01:59;102482.63;;;8.83;100.00
60437;BME280;46289;51.992;4.498;2024-01-30T03:04:04;102471.19;;;8.90;100.00
60437;BME280;46289;51.992;4.498;2024-01-30T03:06:11;102479.13;;;8.82;100.00
60437;BME280;46289;51.992;4.498;2024-01-30T03:08:17;102479.94;;;8.89;100.00
60437;BME280;46289;51.992;4.498;2024-01-30T03:10:27;102479.97;;;8.84;100.00
60437;BME280;46289;51.992;4.498;2024-01-30T03:12:36;102479.13;;;8.81;100.00
60437;BME280;46289;51.992;4.498;2024-01-30T03:14:41;102476.56;;;8.74;100.00
60437;BME280;46289;51.992;4.498;2024-01-30T03:16:46;102480.00;;;8.81;100.00
60437;BME280;46289;51.992;4.498;2024-01-30T03:18:51;102480.81;;;8.91;100.00
60437;BME280;46289;51.992;4.498;2024-01-30T03:20:54;102476.47;;;8.88;100.00
60437;BME280;46289;51.992;4.498;2024-01-30T03:23:00;102485.22;;;8.86;100.00
60437;BME280;46289;51.992;4.498;2024-01-30T03:25:06;102476.50;;;8.79;100.00
60437;BME280;46289;51.992;4.498;2024-01-30T03:27:11;102481.75;;;8.81;100.00
60437;BME280;46289;51.992;4.498;2024-01-30T03:29:16;102482.66;;;8.79;100.00
60437;BME280;46289;51.992;4.498;2024-01-30T03:31:24;102479.09;;;8.87;100.00
60437;BME280;46289;51.992;4.498;2024-01-30T03:33:29;102488.72;;;8.88;100.00
60437;BME280;46289;51.992;4.498;2024-01-30T03:35:37;102480.88;;;8.82;100.00
60437;BME280;46289;51.992;4.498;2024-01-30T03:37:40;102487.91;;;8.79;100.00
60437;BME280;46289;51.992;4.498;2024-01-30T03:39:45;102482.66;;;8.76;100.00
60437;BME280;46289;51.992;4.498;2024-01-30T03:41:50;102486.16;;;8.75;100.00
60437;BME280;46289;51.992;4.498;2024-01-30T03:43:58;102480.00;;;8.83;100.00
60437;BME280;46289;51.992;4.498;2024-01-30T03:46:06;102476.53;;;8.77;100.00
60437;BME280;46289;51.992;4.498;2024-01-30T03:48:11;102477.44;;;8.73;100.00
60437;BME280;46289;51.992;4.498;2024-01-30T03:50:14;102474.81;;;8.73;100.00
60437;BME280;46289;51.992;4.498;2024-01-30T03:52:19;102468.69;;;8.71;100.00
60437;BME280;46289;51.992;4.498;2024-01-30T03:54:25;102476.50;;;8.79;100.00
60437;BME280;46289;51.992;4.498;2024-01-30T03:56:32;102470.38;;;8.82;100.00
60437;BME280;46289;51.992;4.498;2024-01-30T03:58:37;102467.81;;;8.75;100.00
60437;BME280;46289;51.992;4.498;2024-01-30T04:00:43;102470.34;;;8.86;100.00
60437;BME280;46289;51.992;4.498;2024-01-30T04:02:51;102464.31;;;8.79;100.00
60437;BME280;46289;51.992;4.498;2024-01-30T04:04:56;102459.91;;;8.85;100.00
60437;BME280;46289;51.992;4.498;2024-01-30T04:07:01;102475.63;;;8.82;100.00
60437;BME280;46289;51.992;4.498;2024-01-30T04:09:08;102474.72;;;8.86;100.00
60437;BME280;46289;51.992;4.498;2024-01-30T04:11:15;102473.91;;;8.81;100.00
60437;BME280;46289;51.992;4.498;2024-01-30T04:13:19;102466.06;;;8.76;100.00
60437;BME280;46289;51.992;4.498;2024-01-30T04:15:23;102476.56;;;8.74;100.00
60437;BME280;46289;51.992;4.498;2024-01-30T04:17:28;102457.34;;;8.75;100.00
60437;BME280;46289;51.992;4.498;2024-01-30T04:19:40;102471.31;;;8.73;100.00
60437;BME280;46289;51.992;4.498;2024-01-30T04:21:45;102473.03;;;8.78;100.00
60437;BME280;46289;51.992;4.498;2024-01-30T04:23:51;102469.53;;;8.79;100.00
60437;BME280;46289;51.992;4.498;2024-01-30T04:25:56;102463.41;;;8.79;100.00
60437;BME280;46289;51.992;4.498;2024-01-30T04:28:02;102460.81;;;8.77;100.00
60437;BME280;46289;51.992;4.498;2024-01-30T04:30:08;102453.81;;;8.79;100.00
60437;BME280;46289;51.992;4.498;2024-01-30T04:32:13;102445.13;;;8.74;100.00
60437;BME280;46289;51.992;4.498;2024-01-30T04:34:20;102445.09;;;8.76;100.00
60437;BME280;46289;51.992;4.498;2024-01-30T04:36:30;102445.03;;;8.84;100.00
60437;BME280;46289;51.992;4.498;2024-01-30T04:38:37;102447.69;;;8.81;100.00
60437;BME280;46289;51.992;4.498;2024-01-30T04:40:42;102443.38;;;8.72;100.00
60437;BME280;46289;51.992;4.498;2024-01-30T04:42:48;102445.09;;;8.76;100.00
60437;BME280;46289;51.992;4.498;2024-01-30T04:44:53;102442.47;;;8.77;100.00
60437;BME280;46289;51.992;4.498;2024-01-30T04:46:58;102438.94;;;8.82;100.00
60437;BME280;46289;51.992;4.498;2024-01-30T04:49:05;102443.31;;;8.83;100.00
60437;BME280;46289;51.992;4.498;2024-01-30T04:51:10;102436.34;;;8.80;100.00
60437;BME280;46289;51.992;4.498;2024-01-30T04:53:18;102440.72;;;8.79;100.00
60437;BME280;46289;51.992;4.498;2024-01-30T04:55:21;102443.38;;;8.72;100.00
60437;BME280;46289;51.992;4.498;2024-01-30T04:57:26;102450.25;;;8.87;100.00
60437;BME280;46289;51.992;4.498;2024-01-30T04:59:32;102452.81;;;8.94;100.00
60437;BME280;46289;51.992;4.498;2024-01-30T05:01:37;102441.53;;;8.88;100.00
60437;BME280;46289;51.992;4.498;2024-01-30T05:03:44;102451.06;;;8.98;100.00
60437;BME280;46289;51.992;4.498;2024-01-30T05:05:50;102458.00;;;9.02;100.00
60437;BME280;46289;51.992;4.498;2024-01-30T05:07:56;102449.28;;;9.00;100.00
60437;BME280;46289;51.992;4.498;2024-01-30T05:10:04;102448.41;;;8.99;100.00
60437;BME280;46289;51.992;4.498;2024-01-30T05:12:10;102444.91;;;8.99;100.00
60437;BME280;46289;51.992;4.498;2024-01-30T05:14:15;102446.63;;;9.06;100.00
60437;BME280;46289;51.992;4.498;2024-01-30T05:16:21;102441.31;;;9.11;100.00
60437;BME280;46289;51.992;4.498;2024-01-30T05:18:27;102430.06;;;8.99;100.00
60437;BME280;46289;51.992;4.498;2024-01-30T05:20:34;102449.25;;;9.06;100.00
60437;BME280;46289;51.992;4.498;2024-01-30T05:22:40;102443.06;;;9.10;100.00
60437;BME280;46289;51.992;4.498;2024-01-30T05:24:47;102441.34;;;9.09;100.00
60437;BME280;46289;51.992;4.498;2024-01-30T05:26:56;102440.41;;;9.13;100.00
60437;BME280;46289;51.992;4.498;2024-01-30T05:29:00;102452.63;;;9.16;100.00
60437;BME280;46289;51.992;4.498;2024-01-30T05:31:05;102443.91;;;9.15;100.00
60437;BME280;46289;51.992;4.498;2024-01-30T05:33:11;102440.41;;;9.15;100.00
60437;BME280;46289;51.992;4.498;2024-01-30T05:35:16;102446.53;;;9.17;100.00
60437;BME280;46289;51.992;4.498;2024-01-30T05:37:23;102445.66;;;9.16;100.00
60437;BME280;46289;51.992;4.498;2024-01-30T05:39:28;102444.75;;;9.16;100.00
60437;BME280;46289;51.992;4.498;2024-01-30T05:41:36;102440.34;;;9.21;100.00
60437;BME280;46289;51.992;4.498;2024-01-30T05:43:46;102446.53;;;9.15;100.00
60437;BME280;46289;51.992;4.498;2024-01-30T05:45:51;102436.91;;;9.16;100.00
60437;BME280;46289;51.992;4.498;2024-01-30T05:47:54;102443.94;;;9.14;100.00
60437;BME280;46289;51.992;4.498;2024-01-30T05:49:59;102449.19;;;9.14;100.00
60437;BME280;46289;51.992;4.498;2024-01-30T05:52:05;102455.22;;;9.20;100.00
60437;BME280;46289;51.992;4.498;2024-01-30T05:54:12;102456.97;;;9.18;100.00
60437;BME280;46289;51.992;4.498;2024-01-30T05:56:18;102456.16;;;9.16;100.00
60437;BME280;46289;51.992;4.498;2024-01-30T05:58:24;102456.94;;;9.21;100.00
60437;BME280;46289;51.992;4.498;2024-01-30T06:00:31;102463.06;;;9.23;100.00
60437;BME280;46289;51.992;4.498;2024-01-30T06:02:36;102456.94;;;9.25;100.00
60437;BME280;46289;51.992;4.498;2024-01-30T06:04:41;102450.84;;;9.21;100.00
60437;BME280;46289;51.992;4.498;2024-01-30T06:06:46;102462.19;;;9.25;100.00
60437;BME280;46289;51.992;4.498;2024-01-30T06:08:52;102461.31;;;9.24;100.00
60437;BME280;46289;51.992;4.498;2024-01-30T06:10:58;102464.75;;;9.29;100.00
60437;BME280;46289;51.992;4.498;2024-01-30T06:13:07;102457.78;;;9.27;100.00
60437;BME280;46289;51.992;4.498;2024-01-30T06:15:12;102448.16;;;9.30;100.00
60437;BME280;46289;51.992;4.498;2024-01-30T06:17:20;102452.56;;;9.23;100.00
60437;BME280;46289;51.992;4.498;2024-01-30T06:19:26;102458.63;;;9.30;100.00
60437;BME280;46289;51.992;4.498;2024-01-30T06:21:32;102456.88;;;9.32;100.00
60437;BME280;46289;51.992;4.498;2024-01-30T06:23:38;102455.97;;;9.32;100.00
60437;BME280;46289;51.992;4.498;2024-01-30T06:25:43;102461.19;;;9.38;100.00
60437;BME280;46289;51.992;4.498;2024-01-30T06:27:49;102460.34;;;9.37;100.00
60437;BME280;46289;51.992;4.498;2024-01-30T06:29:54;102464.63;;;9.46;100.00
60437;BME280;46289;51.992;4.498;2024-01-30T06:31:59;102457.72;;;9.36;100.00
60437;BME280;46289;51.992;4.498;2024-01-30T06:34:08;102468.16;;;9.39;100.00
60437;BME280;46289;51.992;4.498;2024-01-30T06:36:14;102462.06;;;9.37;100.00
60437;BME280;46289;51.992;4.498;2024-01-30T06:38:19;102455.81;;;9.50;100.00
60437;BME280;46289;51.992;4.498;2024-01-30T06:40:24;102462.84;;;9.48;100.00
60437;BME280;46289;51.992;4.498;2024-01-30T06:42:29;102463.72;;;9.49;100.00
60437;BME280;46289;51.992;4.498;2024-01-30T06:44:32;102471.56;;;9.50;100.00
60437;BME280;46289;51.992;4.498;2024-01-30T06:46:37;102464.50;;;9.55;100.00
60437;BME280;46289;51.992;4.498;2024-01-30T06:48:42;102470.66;;;9.54;100.00
60437;BME280;46289;51.992;4.498;2024-01-30T06:50:49;102482.88;;;9.55;100.00
60437;BME280;46289;51.992;4.498;2024-01-30T06:52:55;102467.13;;;9.57;100.00
60437;BME280;46289;51.992;4.498;2024-01-30T06:55:00;102467.16;;;9.52;100.00
60437;BME280;46289;51.992;4.498;2024-01-30T06:57:08;102473.28;;;9.53;100.00
60437;BME280;46289;51.992;4.498;2024-01-30T06:59:14;102466.25;;;9.56;100.00
60437;BME280;46289;51.992;4.498;2024-01-30T07:01:19;102474.06;;;9.62;100.00
60437;BME280;46289;51.992;4.498;2024-01-30T07:03:24;102473.28;;;9.54;100.00
60437;BME280;46289;51.992;4.498;2024-01-30T07:05:31;102478.53;;;9.54;100.00
60437;BME280;46289;51.992;4.498;2024-01-30T07:07:41;102475.94;;;9.50;100.00
60437;BME280;46289;51.992;4.498;2024-01-30T07:09:46;102473.31;;;9.51;100.00
60437;BME280;46289;51.992;4.498;2024-01-30T07:11:53;102482.88;;;9.57;100.00
60437;BME280;46289;51.992;4.498;2024-01-30T07:14:00;102480.22;;;9.58;100.00
60437;BME280;46289;51.992;4.498;2024-01-30T07:16:06;102483.69;;;9.60;100.00
60437;BME280;46289;51.992;4.498;2024-01-30T07:18:11;102481.03;;;9.66;100.00
60437;BME280;46289;51.992;4.498;2024-01-30T07:20:16;102481.03;;;9.63;100.00
60437;BME280;46289;51.992;4.498;2024-01-30T07:22:24;102488.00;;;9.66;100.00
60437;BME280;46289;51.992;4.498;2024-01-30T07:24:33;102481.91;;;9.67;100.00
60437;BME280;46289;51.992;4.498;2024-01-30T07:26:38;102490.59;;;9.71;100.00
60437;BME280;46289;51.992;4.498;2024-01-30T07:28:43;102490.53;;;9.77;100.00
60437;BME280;46289;51.992;4.498;2024-01-30T07:30:48;102493.19;;;9.74;100.00
60437;BME280;46289;51.992;4.498;2024-01-30T07:32:51;102501.97;;;9.71;100.00
60437;BME280;46289;51.992;4.498;2024-01-30T07:34:57;102499.41;;;9.66;100.00
60437;BME280;46289;51.992;4.498;2024-01-30T07:37:09;102503.72;;;9.71;100.00
60437;BME280;46289;51.992;4.498;2024-01-30T07:39:17;102507.22;;;9.73;100.00
60437;BME280;46289;51.992;4.498;2024-01-30T07:41:28;102495.84;;;9.72;100.00
60437;BME280;46289;51.992;4.498;2024-01-30T07:43:34;102512.38;;;9.79;100.00
60437;BME280;46289;51.992;4.498;2024-01-30T07:45:40;102516.81;;;9.75;100.00
60437;BME280;46289;51.992;4.498;2024-01-30T07:47:45;102510.69;;;9.75;100.00
60437;BME280;46289;51.992;4.498;2024-01-30T07:49:50;102511.50;;;9.83;100.00
60437;BME280;46289;51.992;4.498;2024-01-30T07:51:53;102513.22;;;9.85;100.00
60437;BME280;46289;51.992;4.498;2024-01-30T07:53:59;102520.22;;;9.82;100.00
60437;BME280;46289;51.992;4.498;2024-01-30T07:56:05;102515.00;;;9.80;100.00
60437;BME280;46289;51.992;4.498;2024-01-30T07:58:13;102515.94;;;9.75;100.00
60437;BME280;46289;51.992;4.498;2024-01-30T08:00:18;102526.34;;;9.85;100.00
60437;BME280;46289;51.992;4.498;2024-01-30T08:02:22;102523.75;;;9.81;100.00
60437;BME280;46289;51.992;4.498;2024-01-30T08:04:28;102532.53;;;9.77;100.00
60437;BME280;46289;51.992;4.498;2024-01-30T08:06:33;102538.59;;;9.82;100.00
60437;BME280;46289;51.992;4.498;2024-01-30T08:08:42;102545.66;;;9.78;100.00
60437;BME280;46289;51.992;4.498;2024-01-30T08:10:47;102535.16;;;9.80;100.00
60437;BME280;46289;51.992;4.498;2024-01-30T08:12:51;102534.25;;;9.81;100.00
60437;BME280;46289;51.992;4.498;2024-01-30T08:14:59;102539.47;;;9.84;100.00
60437;BME280;46289;51.992;4.498;2024-01-30T08:17:05;102539.47;;;9.85;100.00
60437;BME280;46289;51.992;4.498;2024-01-30T08:19:10;102542.97;;;9.84;100.00
60437;BME280;46289;51.992;4.498;2024-01-30T08:21:15;102542.91;;;9.91;100.00
60437;BME280;46289;51.992;4.498;2024-01-30T08:23:23;102543.00;;;9.83;100.00
60437;BME280;46289;51.992;4.498;2024-01-30T08:25:28;102545.53;;;9.91;100.00
60437;BME280;46289;51.992;4.498;2024-01-30T08:27:33;102542.91;;;9.91;100.00
60437;BME280;46289;51.992;4.498;2024-01-30T08:29:40;102540.22;;;9.98;100.00
60437;BME280;46289;51.992;4.498;2024-01-30T08:31:48;102542.88;;;9.92;100.00
60437;BME280;46289;51.992;4.498;2024-01-30T08:33:53;102539.44;;;9.90;100.00
60437;BME280;46289;51.992;4.498;2024-01-30T08:35:58;102544.56;;;9.98;100.00
60437;BME280;46289;51.992;4.498;2024-01-30T08:38:01;102541.97;;;9.96;100.00
60437;BME280;46289;51.992;4.498;2024-01-30T08:40:08;102545.44;;;10.01;100.00
60437;BME280;46289;51.992;4.498;2024-01-30T08:42:13;102541.09;;;9.97;100.00
60437;BME280;46289;51.992;4.498;2024-01-30T08:44:21;102543.72;;;9.97;100.00
60437;BME280;46289;51.992;4.498;2024-01-30T08:46:24;102540.19;;;10.00;100.00
60437;BME280;46289;51.992;4.498;2024-01-30T08:48:31;102550.72;;;9.95;100.00
60437;BME280;46289;51.992;4.498;2024-01-30T08:50:37;102546.41;;;9.93;100.00
60437;BME280;46289;51.992;4.498;2024-01-30T08:52:42;102555.06;;;9.98;100.00
60437;BME280;46289;51.992;4.498;2024-01-30T08:54:51;102545.47;;;9.97;100.00
60437;BME280;46289;51.992;4.498;2024-01-30T08:56:57;102555.06;;;10.01;100.00
60437;BME280;46289;51.992;4.498;2024-01-30T08:59:02;102546.28;;;10.00;100.00
60437;BME280;46289;51.992;4.498;2024-01-30T09:01:07;102552.38;;;10.05;100.00
60437;BME280;46289;51.992;4.498;2024-01-30T09:03:13;102554.16;;;10.03;100.00
60437;BME280;46289;51.992;4.498;2024-01-30T09:05:21;102548.00;;;10.06;100.00
60437;BME280;46289;51.992;4.498;2024-01-30T09:07:28;102552.31;;;10.10;100.00
60437;BME280;46289;51.992;4.498;2024-01-30T09:09:33;102559.31;;;10.13;100.00
60437;BME280;46289;51.992;4.498;2024-01-30T09:11:35;102567.16;;;10.17;100.00
60437;BME280;46289;51.992;4.498;2024-01-30T09:13:40;102568.03;;;10.15;100.00
60437;BME280;46289;51.992;4.498;2024-01-30T09:15:45;102571.56;;;10.10;100.00
60437;BME280;46289;51.992;4.498;2024-01-30T09:17:51;102577.72;;;10.11;100.00
60437;BME280;46289;51.992;4.498;2024-01-30T09:19:54;102574.25;;;10.09;100.00
60437;BME280;46289;51.992;4.498;2024-01-30T09:22:03;102576.00;;;10.05;100.00
60437;BME280;46289;51.992;4.498;2024-01-30T09:24:09;102571.66;;;10.03;100.00
60437;BME280;46289;51.992;4.498;2024-01-30T09:26:14;102579.53;;;10.04;100.00
60437;BME280;46289;51.992;4.498;2024-01-30T09:28:19;102576.03;;;10.04;100.00
60437;BME280;46289;51.992;4.498;2024-01-30T09:30:28;102587.50;;;9.97;100.00
60437;BME280;46289;51.992;4.498;2024-01-30T09:32:33;102596.31;;;9.91;100.00
60437;BME280;46289;51.992;4.498;2024-01-30T09:34:35;102594.53;;;9.93;100.00
60437;BME280;46289;51.992;4.498;2024-01-30T09:36:41;102601.59;;;9.88;100.00
60437;BME280;46289;51.992;4.498;2024-01-30T09:38:49;102602.50;;;9.84;100.00
60437;BME280;46289;51.992;4.498;2024-01-30T09:40:55;102606.06;;;9.74;100.00
60437;BME280;46289;51.992;4.498;2024-01-30T09:42:58;102593.03;;;9.64;100.00
60437;BME280;46289;51.992;4.498;2024-01-30T09:45:06;102591.31;;;9.60;100.00
60437;BME280;46289;51.992;4.498;2024-01-30T09:47:13;102601.84;;;9.59;100.00
60437;BME280;46289;51.992;4.498;2024-01-30T09:49:21;102631.56;;;9.64;100.00
60437;BME280;46289;51.992;4.498;2024-01-30T09:51:31;102628.97;;;9.59;100.00
60437;BME280;46289;51.992;4.498;2024-01-30T09:53:39;102624.56;;;9.61;100.00
60437;BME280;46289;51.992;4.498;2024-01-30T09:55:49;102632.41;;;9.63;100.00
60437;BME280;46289;51.992;4.498;2024-01-30T09:57:54;102642.09;;;9.59;100.00
60437;BME280;46289;51.992;4.498;2024-01-30T10:00:00;102642.13;;;9.53;100.00
60437;BME280;46289;51.992;4.498;2024-01-30T10:02:06;102629.09;;;9.39;100.00
60437;BME280;46289;51.992;4.498;2024-01-30T10:04:09;102629.13;;;9.38;100.00
60437;BME280;46289;51.992;4.498;2024-01-30T10:06:15;102641.34;;;9.39;100.00
60437;BME280;46289;51.992;4.498;2024-01-30T10:08:23;102651.88;;;9.36;100.00
60437;BME280;46289;51.992;4.498;2024-01-30T10:10:29;102631.78;;;9.30;100.00
60437;BME280;46289;51.992;4.498;2024-01-30T10:12:41;102634.41;;;9.29;100.00
60437;BME280;46289;51.992;4.498;2024-01-30T10:14:46;102639.66;;;9.29;100.00
60437;BME280;46289;51.992;4.498;2024-01-30T10:16:52;102635.31;;;9.25;100.00
60437;BME280;46289;51.992;4.498;2024-01-30T10:18:57;102629.16;;;9.29;100.00
60437;BME280;46289;51.992;4.498;2024-01-30T10:20:59;102628.25;;;9.34;100.00
60437;BME280;46289;51.992;4.498;2024-01-30T10:23:08;102633.47;;;9.39;100.00
60437;BME280;46289;51.992;4.498;2024-01-30T10:25:11;102632.63;;;9.35;100.00
60437;BME280;46289;51.992;4.498;2024-01-30T10:27:16;102633.53;;;9.27;100.00
60437;BME280;46289;51.992;4.498;2024-01-30T10:29:26;102623.06;;;9.23;100.00
60437;BME280;46289;51.992;4.498;2024-01-30T10:31:31;102633.56;;;9.23;100.00
60437;BME280;46289;51.992;4.498;2024-01-30T10:33:34;102651.03;;;9.26;100.00
60437;BME280;46289;51.992;4.498;2024-01-30T10:35:43;102643.19;;;9.21;100.00
60437;BME280;46289;51.992;4.498;2024-01-30T10:37:48;102653.72;;;9.15;100.00
60437;BME280;46289;51.992;4.498;2024-01-30T10:39:54;102658.09;;;9.15;100.00
60437;BME280;46289;51.992;4.498;2024-01-30T10:42:10;102651.16;;;9.05;100.00
60437;BME280;46289;51.992;4.498;2024-01-30T10:44:18;102656.41;;;9.00;100.00
60437;BME280;46289;51.992;4.498;2024-01-30T10:46:31;102655.59;;;8.98;100.00
60437;BME280;46289;51.992;4.498;2024-01-30T10:48:41;102653.84;;;8.94;100.00
60437;BME280;46289;51.992;4.498;2024-01-30T10:50:48;102656.47;;;8.91;100.00
60437;BME280;46289;51.992;4.498;2024-01-30T10:53:02;102669.59;;;8.86;100.00
60437;BME280;46289;51.992;4.498;2024-01-30T10:55:08;102659.13;;;8.85;100.00
60437;BME280;46289;51.992;4.498;2024-01-30T10:57:15;102659.97;;;8.87;100.00
60437;BME280;46289;51.992;4.498;2024-01-30T10:59:24;102662.63;;;8.85;100.00